sensor_id;sensor_type;location;lat;lon;timestamp;temperature;humidity
23591;DHT22;11973;52.098;7.582;2023-03-29T03:47:06;5.90;99.20
23591;DHT22;11973;52.098;7.582;2023-03-29T03:49:35;5.90;99.20
23591;DHT22;11973;52.098;7.582;2023-03-29T03:52:01;5.90;99.30
23591;DHT22;11973;52.098;7.582;2023-03-29T03:54:27;6.00;99.40
23591;DHT22;11973;52.098;7.582;2023-03-29T03:57:11;6.00;99.40
23591;DHT22;11973;52.098;7.582;2023-03-29T03:59:43;6.00;99.50
23591;DHT22;11973;52.098;7.582;2023-03-29T04:02:14;6.00;99.60
23591;DHT22;11973;52.098;7.582;2023-03-29T04:04:42;6.00;99.60
23591;DHT22;11973;52.098;7.582;2023-03-29T04:07:11;6.00;99.60
23591;DHT22;11973;52.098;7.582;2023-03-29T04:10:01;6.00;99.60
23591;DHT22;11973;52.098;7.582;2023-03-29T04:12:50;6.00;99.60
23591;DHT22;11973;52.098;7.582;2023-03-29T04:15:15;6.00;99.60
23591;DHT22;11973;52.098;7.582;2023-03-29T04:17:48;6.00;99.60
23591;DHT22;11973;52.098;7.582;2023-03-29T04:20:23;6.30;99.80
23591;DHT22;11973;52.098;7.582;2023-03-29T04:22:52;6.10;99.70
23591;DHT22;11973;52.098;7.582;2023-03-29T04:25:19;6.10;99.80
23591;DHT22;11973;52.098;7.582;2023-03-29T04:27:51;6.10;99.80
23591;DHT22;11973;52.098;7.582;2023-03-29T04:30:41;6.10;99.80
23591;DHT22;11973;52.098;7.582;2023-03-29T04:33:18;6.20;99.80
23591;DHT22;11973;52.098;7.582;2023-03-29T04:35:49;6.30;99.90
23591;DHT22;11973;52.098;7.582;2023-03-29T04:38:16;6.10;99.80
23591;DHT22;11973;52.098;7.582;2023-03-29T04:40:48;6.30;99.90
23591;DHT22;11973;52.098;7.582;2023-03-29T04:43:37;6.10;99.90
23591;DHT22;11973;52.098;7.582;2023-03-29T04:46:13;6.10;99.90
23591;DHT22;11973;52.098;7.582;2023-03-29T04:48:53;6.30;99.90
23591;DHT22;11973;52.098;7.582;2023-03-29T04:51:28;6.20;99.90
23591;DHT22;11973;52.098;7.582;2023-03-29T04:53:54;6.20;99.90
23591;DHT22;11973;52.098;7.582;2023-03-29T04:56:25;6.20;99.90
23591;DHT22;11973;52.098;7.582;2023-03-29T04:59:17;6.20;99.90
23591;DHT22;11973;52.098;7.582;2023-03-29T05:01:43;6.20;99.90
23591;DHT22;11973;52.098;7.582;2023-03-29T05:04:10;6.20;99.90
23591;DHT22;11973;52.098;7.582;2023-03-29T05:06:43;6.20;99.90
23591;DHT22;11973;52.098;7.582;2023-03-29T05:09:09;6.40;99.90
23591;DHT22;11973;52.098;7.582;2023-03-29T05:11:50;6.30;99.90
23591;DHT22;11973;52.098;7.582;2023-03-29T05:14:18;6.20;99.90
23591;DHT22;11973;52.098;7.582;2023-03-29T05:16:44;6.20;99.90
23591;DHT22;11973;52.098;7.582;2023-03-29T05:19:09;6.30;99.90
23591;DHT22;11973;52.098;7.582;2023-03-29T05:21:40;6.20;99.90
23591;DHT22;11973;52.098;7.582;2023-03-29T05:24:09;6.30;99.90
23591;DHT22;11973;52.098;7.582;2023-03-29T05:26:55;6.30;99.90
23591;DHT22;11973;52.098;7.582;2023-03-29T05:29:22;6.30;99.90
23591;DHT22;11973;52.098;7.582;2023-03-29T05:31:55;6.30;99.90
23591;DHT22;11973;52.098;7.582;2023-03-29T05:34:21;6.50;99.90
23591;DHT22;11973;52.098;7.582;2023-03-29T05:36:51;6.40;99.90
23591;DHT22;11973;52.098;7.582;2023-03-29T05:39:18;6.50;99.90
23591;DHT22;11973;52.098;7.582;2023-03-29T05:41:44;6.40;99.90
23591;DHT22;11973;52.098;7.582;2023-03-29T05:44:26;6.40;99.90
23591;DHT22;11973;52.098;7.582;2023-03-29T05:46:58;6.70;99.90
23591;DHT22;11973;52.098;7.582;2023-03-29T05:49:23;6.10;99.90
23591;DHT22;11973;52.098;7.582;2023-03-29T05:52:00;6.40;99.90
23591;DHT22;11973;52.098;7.582;2023-03-29T05:54:29;6.70;99.90
23591;DHT22;11973;52.098;7.582;2023-03-29T05:56:55;6.60;99.90
23591;DHT22;11973;52.098;7.582;2023-03-29T05:59:21;6.50;99.90
23591;DHT22;11973;52.098;7.582;2023-03-29T06:01:48;6.50;99.90
23591;DHT22;11973;52.098;7.582;2023-03-29T06:04:18;6.50;99.90
23591;DHT22;11973;52.098;7.582;2023-03-29T06:06:54;6.50;99.90
23591;DHT22;11973;52.098;7.582;2023-03-29T06:09:20;6.50;99.90
23591;DHT22;11973;52.098;7.582;2023-03-29T06:12:06;6.60;99.90
23591;DHT22;11973;52.098;7.582;2023-03-29T06:14:45;6.50;99.90
23591;DHT22;11973;52.098;7.582;2023-03-29T06:17:24;6.50;99.90
23591;DHT22;11973;52.098;7.582;2023-03-29T06:19:50;6.60;99.90
23591;DHT22;11973;52.098;7.582;2023-03-29T06:22:18;6.60;99.90
23591;DHT22;11973;52.098;7.582;2023-03-29T06:24:44;6.60;99.90
23591;DHT22;11973;52.098;7.582;2023-03-29T06:27:20;6.80;99.90
23591;DHT22;11973;52.098;7.582;2023-03-29T06:29:46;6.70;99.90
23591;DHT22;11973;52.098;7.582;2023-03-29T06:32:12;6.70;99.90
23591;DHT22;11973;52.098;7.582;2023-03-29T06:34:45;6.80;99.90
23591;DHT22;11973;52.098;7.582;2023-03-29T06:37:37;7.00;99.90
23591;DHT22;11973;52.098;7.582;2023-03-29T06:40:25;6.90;99.90
23591;DHT22;11973;52.098;7.582;2023-03-29T06:42:56;7.10;99.90
23591;DHT22;11973;52.098;7.582;2023-03-29T06:45:27;6.90;99.90
23591;DHT22;11973;52.098;7.582;2023-03-29T06:47:53;7.00;99.90
23591;DHT22;11973;52.098;7.582;2023-03-29T06:50:19;7.00;99.90
23591;DHT22;11973;52.098;7.582;2023-03-29T06:53:09;7.10;99.90
23591;DHT22;11973;52.098;7.582;2023-03-29T06:55:37;7.20;99.90
23591;DHT22;11973;52.098;7.582;2023-03-29T06:58:34;7.30;99.90
23591;DHT22;11973;52.098;7.582;2023-03-29T07:01:07;7.40;99.90
23591;DHT22;11973;52.098;7.582;2023-03-29T07:03:53;7.40;99.90
23591;DHT22;11973;52.098;7.582;2023-03-29T07:06:27;7.30;99.90
23591;DHT22;11973;52.098;7.582;2023-03-29T07:08:53;7.30;99.90
23591;DHT22;11973;52.098;7.582;2023-03-29T07:11:42;7.30;99.90
23591;DHT22;11973;52.098;7.582;2023-03-29T07:14:21;7.40;99.90
23591;DHT22;11973;52.098;7.582;2023-03-29T07:16:47;7.40;99.90
23591;DHT22;11973;52.098;7.582;2023-03-29T07:19:22;7.50;99.90
23591;DHT22;11973;52.098;7.582;2023-03-29T07:21:50;7.50;99.90
23591;DHT22;11973;52.098;7.582;2023-03-29T07:24:19;7.20;99.90
23591;DHT22;11973;52.098;7.582;2023-03-29T07:26:49;7.60;99.90
23591;DHT22;11973;52.098;7.582;2023-03-29T07:29:16;7.60;99.90
23591;DHT22;11973;52.098;7.582;2023-03-29T07:31:42;7.70;99.90
23591;DHT22;11973;52.098;7.582;2023-03-29T07:34:35;7.80;99.90
23591;DHT22;11973;52.098;7.582;2023-03-29T07:37:03;7.90;99.90
23591;DHT22;11973;52.098;7.582;2023-03-29T07:39:29;7.70;99.90
23591;DHT22;11973;52.098;7.582;2023-03-29T07:42:15;7.80;99.90
23591;DHT22;11973;52.098;7.582;2023-03-29T07:44:41;7.80;99.90
23591;DHT22;11973;52.098;7.582;2023-03-29T07:47:07;7.80;99.90
23591;DHT22;11973;52.098;7.582;2023-03-29T07:49:35;7.90;99.90
23591;DHT22;11973;52.098;7.582;2023-03-29T07:52:01;8.00;99.90
23591;DHT22;11973;52.098;7.582;2023-03-29T07:54:28;8.00;99.90
23591;DHT22;11973;52.098;7.582;2023-03-29T07:57:23;8.00;99.90
23591;DHT22;11973;52.098;7.582;2023-03-29T07:59:53;8.10;99.90
23591;DHT22;11973;52.098;7.582;2023-03-29T08:02:23;8.10;99.90
23591;DHT22;11973;52.098;7.582;2023-03-29T08:04:52;8.20;99.90
23591;DHT22;11973;52.098;7.582;2023-03-29T08:07:47;8.40;99.90
23591;DHT22;11973;52.098;7.582;2023-03-29T08:10:18;8.30;99.90
23591;DHT22;11973;52.098;7.582;2023-03-29T08:13:05;8.40;99.90
23591;DHT22;11973;52.098;7.582;2023-03-29T08:16:04;8.40;99.90
23591;DHT22;11973;52.098;7.582;2023-03-29T08:18:36;8.60;99.90
23591;DHT22;11973;52.098;7.582;2023-03-29T08:21:03;8.70;99.90
23591;DHT22;11973;52.098;7.582;2023-03-29T08:23:29;8.90;99.90
23591;DHT22;11973;52.098;7.582;2023-03-29T08:26:14;9.00;99.90
23591;DHT22;11973;52.098;7.582;2023-03-29T08:28:41;9.10;99.90
23591;DHT22;11973;52.098;7.582;2023-03-29T08:31:08;9.20;99.90
23591;DHT22;11973;52.098;7.582;2023-03-29T08:33:40;9.20;99.90
23591;DHT22;11973;52.098;7.582;2023-03-29T08:36:37;9.30;99.90
23591;DHT22;11973;52.098;7.582;2023-03-29T08:39:10;9.30;99.90
23591;DHT22;11973;52.098;7.582;2023-03-29T08:47:25;9.50;99.90
23591;DHT22;11973;52.098;7.582;2023-03-29T08:50:02;9.60;99.90
23591;DHT22;11973;52.098;7.582;2023-03-29T08:52:51;9.60;99.90
23591;DHT22;11973;52.098;7.582;2023-03-29T08:55:41;9.70;99.90
23591;DHT22;11973;52.098;7.582;2023-03-29T08:58:44;9.80;99.90
23591;DHT22;11973;52.098;7.582;2023-03-29T09:01:11;9.90;99.90
23591;DHT22;11973;52.098;7.582;2023-03-29T09:06:43;10.10;99.90
23591;DHT22;11973;52.098;7.582;2023-03-29T09:09:21;10.20;99.90
23591;DHT22;11973;52.098;7.582;2023-03-29T09:17:24;10.60;99.90
23591;DHT22;11973;52.098;7.582;2023-03-29T09:22:52;10.80;99.90
23591;DHT22;11973;52.098;7.582;2023-03-29T09:25:42;10.80;99.90
23591;DHT22;11973;52.098;7.582;2023-03-29T09:28:59;10.80;99.90
23591;DHT22;11973;52.098;7.582;2023-03-29T09:31:18;10.90;99.90
23591;DHT22;11973;52.098;7.582;2023-03-29T09:33:53;10.90;99.90
23591;DHT22;11973;52.098;7.582;2023-03-29T09:36:29;10.90;99.90
23591;DHT22;11973;52.098;7.582;2023-03-29T09:38:58;11.00;99.90
23591;DHT22;11973;52.098;7.582;2023-03-29T09:41:38;11.00;99.90
23591;DHT22;11973;52.098;7.582;2023-03-29T09:44:12;11.10;99.90
23591;DHT22;11973;52.098;7.582;2023-03-29T09:46:48;11.00;99.90
23591;DHT22;11973;52.098;7.582;2023-03-29T09:49:21;11.10;99.90
23591;DHT22;11973;52.098;7.582;2023-03-29T09:51:49;11.20;99.90
23591;DHT22;11973;52.098;7.582;2023-03-29T09:54:17;11.30;99.90
23591;DHT22;11973;52.098;7.582;2023-03-29T09:57:24;11.30;99.90
23591;DHT22;11973;52.098;7.582;2023-03-29T09:59:50;11.30;99.90
23591;DHT22;11973;52.098;7.582;2023-03-29T10:02:18;11.40;99.90
23591;DHT22;11973;52.098;7.582;2023-03-29T10:04:52;11.30;99.90
23591;DHT22;11973;52.098;7.582;2023-03-29T10:07:20;11.20;99.90
23591;DHT22;11973;52.098;7.582;2023-03-29T10:09:54;11.10;99.90
23591;DHT22;11973;52.098;7.582;2023-03-29T10:12:21;11.10;99.90
23591;DHT22;11973;52.098;7.582;2023-03-29T10:14:48;11.00;99.90
23591;DHT22;11973;52.098;7.582;2023-03-29T10:17:22;11.00;99.90
23591;DHT22;11973;52.098;7.582;2023-03-29T10:22:21;11.00;99.90
23591;DHT22;11973;52.098;7.582;2023-03-29T10:24:52;11.00;99.90
23591;DHT22;11973;52.098;7.582;2023-03-29T10:27:23;11.00;99.90
23591;DHT22;11973;52.098;7.582;2023-03-29T10:29:53;11.00;99.90
23591;DHT22;11973;52.098;7.582;2023-03-29T10:32:34;11.00;99.90
23591;DHT22;11973;52.098;7.582;2023-03-29T10:35:38;11.00;99.90
23591;DHT22;11973;52.098;7.582;2023-03-29T10:38:10;11.00;99.90
23591;DHT22;11973;52.098;7.582;2023-03-29T10:40:48;11.00;99.90
23591;DHT22;11973;52.098;7.582;2023-03-29T10:43:27;10.90;99.90
23591;DHT22;11973;52.098;7.582;2023-03-29T10:45:56;10.80;99.90
23591;DHT22;11973;52.098;7.582;2023-03-29T10:48:30;10.80;99.90
23591;DHT22;11973;52.098;7.582;2023-03-29T10:51:03;10.80;99.90
23591;DHT22;11973;52.098;7.582;2023-03-29T10:53:39;10.80;99.90
23591;DHT22;11973;52.098;7.582;2023-03-29T10:56:30;10.80;99.90
23591;DHT22;11973;52.098;7.582;2023-03-29T10:59:29;10.80;99.90
23591;DHT22;11973;52.098;7.582;2023-03-29T11:04:44;11.00;99.90
23591;DHT22;11973;52.098;7.582;2023-03-29T11:07:33;11.00;99.90
23591;DHT22;11973;52.098;7.582;2023-03-29T11:10:15;11.10;99.90
23591;DHT22;11973;52.098;7.582;2023-03-29T11:12:55;11.10;99.90
23591;DHT22;11973;52.098;7.582;2023-03-29T11:27:14;11.10;99.90
23591;DHT22;11973;52.098;7.582;2023-03-29T11:42:57;11.10;99.90
23591;DHT22;11973;52.098;7.582;2023-03-29T11:45:52;11.10;99.90
23591;DHT22;11973;52.098;7.582;2023-03-29T11:48:26;11.20;99.90
23591;DHT22;11973;52.098;7.582;2023-03-29T11:51:02;11.30;99.90
23591;DHT22;11973;52.098;7.582;2023-03-29T11:56:23;11.60;99.90
23591;DHT22;11973;52.098;7.582;2023-03-29T11:58:57;11.70;99.90
23591;DHT22;11973;52.098;7.582;2023-03-29T12:01:37;11.80;99.90
23591;DHT22;11973;52.098;7.582;2023-03-29T12:04:18;11.80;99.90
23591;DHT22;11973;52.098;7.582;2023-03-29T12:06:49;12.00;99.90
23591;DHT22;11973;52.098;7.582;2023-03-29T12:09:40;11.90;99.90
23591;DHT22;11973;52.098;7.582;2023-03-29T12:12:41;11.90;99.90
23591;DHT22;11973;52.098;7.582;2023-03-29T12:15:21;12.00;99.90
23591;DHT22;11973;52.098;7.582;2023-03-29T12:18:01;12.00;99.90
23591;DHT22;11973;52.098;7.582;2023-03-29T12:20:36;12.00;99.90
23591;DHT22;11973;52.098;7.582;2023-03-29T12:23:05;12.00;99.90
23591;DHT22;11973;52.098;7.582;2023-03-29T12:26:05;12.00;99.90
23591;DHT22;11973;52.098;7.582;2023-03-29T12:31:33;12.00;99.90
23591;DHT22;11973;52.098;7.582;2023-03-29T12:37:01;12.10;99.90
23591;DHT22;11973;52.098;7.582;2023-03-29T12:40:03;12.20;99.90
23591;DHT22;11973;52.098;7.582;2023-03-29T12:43:04;12.20;99.90
23591;DHT22;11973;52.098;7.582;2023-03-29T12:46:08;12.30;99.90
23591;DHT22;11973;52.098;7.582;2023-03-29T12:48:37;12.30;99.90
23591;DHT22;11973;52.098;7.582;2023-03-29T12:51:11;12.20;99.90
23591;DHT22;11973;52.098;7.582;2023-03-29T12:56:15;12.20;99.90
23591;DHT22;11973;52.098;7.582;2023-03-29T12:58:52;12.10;99.90
23591;DHT22;11973;52.098;7.582;2023-03-29T13:01:35;12.10;99.90
23591;DHT22;11973;52.098;7.582;2023-03-29T13:04:17;12.00;99.90
23591;DHT22;11973;52.098;7.582;2023-03-29T13:09:32;11.90;99.90
23591;DHT22;11973;52.098;7.582;2023-03-29T13:14:49;11.90;99.90
23591;DHT22;11973;52.098;7.582;2023-03-29T13:18:08;11.90;99.90
23591;DHT22;11973;52.098;7.582;2023-03-29T13:28:29;12.10;99.90
23591;DHT22;11973;52.098;7.582;2023-03-29T13:31:23;12.20;99.90
23591;DHT22;11973;52.098;7.582;2023-03-29T13:33:57;12.30;99.90
23591;DHT22;11973;52.098;7.582;2023-03-29T13:36:44;12.30;99.90
23591;DHT22;11973;52.098;7.582;2023-03-29T13:39:16;12.30;99.90
23591;DHT22;11973;52.098;7.582;2023-03-29T13:41:49;12.30;99.90
23591;DHT22;11973;52.098;7.582;2023-03-29T13:47:00;12.30;99.90
23591;DHT22;11973;52.098;7.582;2023-03-29T13:49:28;12.40;99.90
23591;DHT22;11973;52.098;7.582;2023-03-29T13:52:09;12.40;99.90
23591;DHT22;11973;52.098;7.582;2023-03-29T13:57:36;12.40;99.90
23591;DHT22;11973;52.098;7.582;2023-03-29T14:00:12;12.60;99.90
23591;DHT22;11973;52.098;7.582;2023-03-29T14:02:47;12.70;99.90
23591;DHT22;11973;52.098;7.582;2023-03-29T14:05:42;12.80;99.90
23591;DHT22;11973;52.098;7.582;2023-03-29T14:08:14;13.00;99.90
23591;DHT22;11973;52.098;7.582;2023-03-29T14:10:43;13.20;99.90
23591;DHT22;11973;52.098;7.582;2023-03-29T14:13:14;13.40;99.90
23591;DHT22;11973;52.098;7.582;2023-03-29T14:15:43;13.70;99.90
23591;DHT22;11973;52.098;7.582;2023-03-29T14:18:12;14.00;99.90
23591;DHT22;11973;52.098;7.582;2023-03-29T14:20:42;14.30;99.90
23591;DHT22;11973;52.098;7.582;2023-03-29T14:23:11;14.50;99.90
23591;DHT22;11973;52.098;7.582;2023-03-29T14:25:39;14.60;99.90
23591;DHT22;11973;52.098;7.582;2023-03-29T14:28:31;14.70;99.90
23591;DHT22;11973;52.098;7.582;2023-03-29T14:30:57;14.80;99.90
23591;DHT22;11973;52.098;7.582;2023-03-29T14:33:28;14.90;99.90
23591;DHT22;11973;52.098;7.582;2023-03-29T14:35:57;15.00;99.90
23591;DHT22;11973;52.098;7.582;2023-03-29T14:38:24;15.10;99.90
23591;DHT22;11973;52.098;7.582;2023-03-29T14:40:51;15.20;99.90
23591;DHT22;11973;52.098;7.582;2023-03-29T14:43:20;15.30;99.90
23591;DHT22;11973;52.098;7.582;2023-03-29T14:45:49;15.30;99.90
23591;DHT22;11973;52.098;7.582;2023-03-29T14:48:15;15.40;99.90
23591;DHT22;11973;52.098;7.582;2023-03-29T14:50:42;15.40;99.90
23591;DHT22;11973;52.098;7.582;2023-03-29T14:53:19;15.40;99.90
23591;DHT22;11973;52.098;7.582;2023-03-29T14:55:51;15.30;99.90
23591;DHT22;11973;52.098;7.582;2023-03-29T14:58:27;15.20;99.90
23591;DHT22;11973;52.098;7.582;2023-03-29T15:00:53;15.20;99.90
23591;DHT22;11973;52.098;7.582;2023-03-29T15:03:20;15.20;99.90
23591;DHT22;11973;52.098;7.582;2023-03-29T15:06:01;15.20;99.90
23591;DHT22;11973;52.098;7.582;2023-03-29T15:08:35;15.30;99.90
23591;DHT22;11973;52.098;7.582;2023-03-29T15:11:09;15.40;99.90
23591;DHT22;11973;52.098;7.582;2023-03-29T15:13:41;15.70;99.90
23591;DHT22;11973;52.098;7.582;2023-03-29T15:16:09;15.90;99.90
23591;DHT22;11973;52.098;7.582;2023-03-29T15:18:37;16.10;99.90
23591;DHT22;11973;52.098;7.582;2023-03-29T15:21:09;16.30;99.90
23591;DHT22;11973;52.098;7.582;2023-03-29T15:23:49;16.50;99.90
23591;DHT22;11973;52.098;7.582;2023-03-29T15:26:33;16.50;99.90
23591;DHT22;11973;52.098;7.582;2023-03-29T15:31:37;16.60;99.90
23591;DHT22;11973;52.098;7.582;2023-03-29T15:34:12;16.50;99.90
23591;DHT22;11973;52.098;7.582;2023-03-29T15:36:43;16.50;99.90
23591;DHT22;11973;52.098;7.582;2023-03-29T15:39:16;16.40;99.90
23591;DHT22;11973;52.098;7.582;2023-03-29T15:41:44;16.30;99.90
23591;DHT22;11973;52.098;7.582;2023-03-29T15:44:14;16.30;99.90
23591;DHT22;11973;52.098;7.582;2023-03-29T15:46:42;16.20;99.90
23591;DHT22;11973;52.098;7.582;2023-03-29T15:49:12;16.10;99.90
23591;DHT22;11973;52.098;7.582;2023-03-29T15:51:38;15.90;99.90
23591;DHT22;11973;52.098;7.582;2023-03-29T15:54:05;15.80;99.90
23591;DHT22;11973;52.098;7.582;2023-03-29T15:56:33;15.70;99.90
23591;DHT22;11973;52.098;7.582;2023-03-29T15:59:03;15.60;99.90
23591;DHT22;11973;52.098;7.582;2023-03-29T16:01:33;15.60;99.90
23591;DHT22;11973;52.098;7.582;2023-03-29T16:04:11;15.50;99.90
23591;DHT22;11973;52.098;7.582;2023-03-29T16:06:39;15.50;99.90
23591;DHT22;11973;52.098;7.582;2023-03-29T16:09:07;15.40;99.90
23591;DHT22;11973;52.098;7.582;2023-03-29T16:11:36;15.40;99.90
23591;DHT22;11973;52.098;7.582;2023-03-29T16:16:41;15.20;99.90
23591;DHT22;11973;52.098;7.582;2023-03-29T16:19:06;15.10;99.90
23591;DHT22;11973;52.098;7.582;2023-03-29T16:21:32;15.00;99.90
23591;DHT22;11973;52.098;7.582;2023-03-29T16:23:58;14.90;99.90
23591;DHT22;11973;52.098;7.582;2023-03-29T16:26:23;14.80;99.90
23591;DHT22;11973;52.098;7.582;2023-03-29T16:28:50;14.60;99.90
23591;DHT22;11973;52.098;7.582;2023-03-29T16:31:16;14.60;99.90
23591;DHT22;11973;52.098;7.582;2023-03-29T16:33:42;14.50;99.90
23591;DHT22;11973;52.098;7.582;2023-03-29T16:36:09;14.40;99.90
23591;DHT22;11973;52.098;7.582;2023-03-29T16:38:34;14.30;99.90
23591;DHT22;11973;52.098;7.582;2023-03-29T16:41:00;14.30;99.90
23591;DHT22;11973;52.098;7.582;2023-03-29T16:43:26;14.20;99.90
23591;DHT22;11973;52.098;7.582;2023-03-29T16:45:52;14.10;99.90
23591;DHT22;11973;52.098;7.582;2023-03-29T16:48:18;14.10;99.90
23591;DHT22;11973;52.098;7.582;2023-03-29T16:50:45;14.00;99.90
23591;DHT22;11973;52.098;7.582;2023-03-29T16:53:14;13.90;99.90
23591;DHT22;11973;52.098;7.582;2023-03-29T16:55:41;13.90;99.90
23591;DHT22;11973;52.098;7.582;2023-03-29T16:58:07;13.80;99.90
23591;DHT22;11973;52.098;7.582;2023-03-29T17:00:33;13.80;99.90
23591;DHT22;11973;52.098;7.582;2023-03-29T17:02:59;13.70;99.90
23591;DHT22;11973;52.098;7.582;2023-03-29T17:05:28;13.60;99.90
23591;DHT22;11973;52.098;7.582;2023-03-29T17:07:53;13.60;99.90
23591;DHT22;11973;52.098;7.582;2023-03-29T17:10:22;13.60;99.90
23591;DHT22;11973;52.098;7.582;2023-03-29T17:12:48;13.50;99.90
23591;DHT22;11973;52.098;7.582;2023-03-29T17:15:14;13.50;99.90
23591;DHT22;11973;52.098;7.582;2023-03-29T17:17:40;13.50;99.90
23591;DHT22;11973;52.098;7.582;2023-03-29T17:20:07;13.40;99.90
23591;DHT22;11973;52.098;7.582;2023-03-29T17:22:37;13.40;99.90
23591;DHT22;11973;52.098;7.582;2023-03-29T17:25:03;13.30;99.90
23591;DHT22;11973;52.098;7.582;2023-03-29T17:27:32;13.30;99.90
23591;DHT22;11973;52.098;7.582;2023-03-29T17:29:59;13.20;99.90
23591;DHT22;11973;52.098;7.582;2023-03-29T17:32:25;13.20;99.90
23591;DHT22;11973;52.098;7.582;2023-03-29T17:34:50;13.20;99.90
23591;DHT22;11973;52.098;7.582;2023-03-29T17:37:18;13.20;99.90
23591;DHT22;11973;52.098;7.582;2023-03-29T17:39:46;13.10;99.90
23591;DHT22;11973;52.098;7.582;2023-03-29T17:42:12;13.10;99.90
23591;DHT22;11973;52.098;7.582;2023-03-29T17:44:42;13.00;99.90
23591;DHT22;11973;52.098;7.582;2023-03-29T17:47:21;13.00;99.90
23591;DHT22;11973;52.098;7.582;2023-03-29T17:49:49;12.80;99.90
23591;DHT22;11973;52.098;7.582;2023-03-29T17:52:20;12.90;99.90
23591;DHT22;11973;52.098;7.582;2023-03-29T17:54:46;12.90;99.90
23591;DHT22;11973;52.098;7.582;2023-03-29T17:57:22;12.90;99.90
23591;DHT22;11973;52.098;7.582;2023-03-29T17:59:54;12.90;99.90
23591;DHT22;11973;52.098;7.582;2023-03-29T18:02:21;12.90;99.90
23591;DHT22;11973;52.098;7.582;2023-03-29T18:04:54;12.80;99.90
23591;DHT22;11973;52.098;7.582;2023-03-29T18:07:20;12.80;99.90
23591;DHT22;11973;52.098;7.582;2023-03-29T18:09:46;12.80;99.90
23591;DHT22;11973;52.098;7.582;2023-03-29T18:12:11;12.80;99.90
23591;DHT22;11973;52.098;7.582;2023-03-29T18:14:37;12.80;99.90
23591;DHT22;11973;52.098;7.582;2023-03-29T18:17:03;12.70;99.90
23591;DHT22;11973;52.098;7.582;2023-03-29T18:19:28;12.70;99.90
23591;DHT22;11973;52.098;7.582;2023-03-29T18:21:54;12.70;99.90
23591;DHT22;11973;52.098;7.582;2023-03-29T18:24:20;12.70;99.90
23591;DHT22;11973;52.098;7.582;2023-03-29T18:26:46;12.70;99.90
23591;DHT22;11973;52.098;7.582;2023-03-29T18:29:12;12.70;99.90
23591;DHT22;11973;52.098;7.582;2023-03-29T18:31:38;12.70;99.90
23591;DHT22;11973;52.098;7.582;2023-03-29T18:34:03;12.70;99.90
23591;DHT22;11973;52.098;7.582;2023-03-29T18:36:29;12.60;99.90
23591;DHT22;11973;52.098;7.582;2023-03-29T18:38:55;12.60;99.90
23591;DHT22;11973;52.098;7.582;2023-03-29T18:41:26;12.60;99.90
23591;DHT22;11973;52.098;7.582;2023-03-29T18:43:52;12.60;99.90
23591;DHT22;11973;52.098;7.582;2023-03-29T18:46:22;12.60;99.90
23591;DHT22;11973;52.098;7.582;2023-03-29T18:48:47;12.60;99.90
23591;DHT22;11973;52.098;7.582;2023-03-29T18:51:13;12.60;99.90
23591;DHT22;11973;52.098;7.582;2023-03-29T18:53:39;12.50;99.90
23591;DHT22;11973;52.098;7.582;2023-03-29T18:56:07;12.60;99.90
23591;DHT22;11973;52.098;7.582;2023-03-29T18:58:34;12.50;99.90
23591;DHT22;11973;52.098;7.582;2023-03-29T19:01:01;12.60;99.90
23591;DHT22;11973;52.098;7.582;2023-03-29T19:03:31;12.60;99.90
23591;DHT22;11973;52.098;7.582;2023-03-29T19:05:57;12.50;99.90
23591;DHT22;11973;52.098;7.582;2023-03-29T19:08:23;12.50;99.90
23591;DHT22;11973;52.098;7.582;2023-03-29T19:10:51;12.50;99.90
23591;DHT22;11973;52.098;7.582;2023-03-29T19:13:17;12.60;99.90
23591;DHT22;11973;52.098;7.582;2023-03-29T19:15:43;12.60;99.90
23591;DHT22;11973;52.098;7.582;2023-03-29T19:18:09;12.50;99.90
23591;DHT22;11973;52.098;7.582;2023-03-29T19:20:36;12.50;99.90
23591;DHT22;11973;52.098;7.582;2023-03-29T19:23:02;12.60;99.90
23591;DHT22;11973;52.098;7.582;2023-03-29T19:25:32;12.60;99.90
23591;DHT22;11973;52.098;7.582;2023-03-29T19:27:58;12.50;99.90
23591;DHT22;11973;52.098;7.582;2023-03-29T19:30:24;12.60;99.90
23591;DHT22;11973;52.098;7.582;2023-03-29T19:32:50;12.60;99.90
23591;DHT22;11973;52.098;7.582;2023-03-29T19:35:17;12.60;99.90
23591;DHT22;11973;52.098;7.582;2023-03-29T19:37:42;12.60;99.90
23591;DHT22;11973;52.098;7.582;2023-03-29T19:40:18;12.60;99.90
23591;DHT22;11973;52.098;7.582;2023-03-29T19:42:44;12.60;99.90
23591;DHT22;11973;52.098;7.582;2023-03-29T19:45:12;12.60;99.90
23591;DHT22;11973;52.098;7.582;2023-03-29T19:47:37;12.50;99.90
23591;DHT22;11973;52.098;7.582;2023-03-29T19:50:06;12.60;99.90
23591;DHT22;11973;52.098;7.582;2023-03-29T19:52:32;12.60;99.90
23591;DHT22;11973;52.098;7.582;2023-03-29T19:54:58;12.50;99.90
23591;DHT22;11973;52.098;7.582;2023-03-29T19:57:24;12.50;99.90
23591;DHT22;11973;52.098;7.582;2023-03-29T19:59:50;12.50;99.90
23591;DHT22;11973;52.098;7.582;2023-03-29T20:02:18;12.50;99.90
23591;DHT22;11973;52.098;7.582;2023-03-29T20:04:44;12.60;99.90
23591;DHT22;11973;52.098;7.582;2023-03-29T20:07:11;12.50;99.90
23591;DHT22;11973;52.098;7.582;2023-03-29T20:09:36;12.60;99.90
23591;DHT22;11973;52.098;7.582;2023-03-29T20:12:03;12.50;99.90
23591;DHT22;11973;52.098;7.582;2023-03-29T20:14:29;12.50;99.90
23591;DHT22;11973;52.098;7.582;2023-03-29T20:16:55;12.50;99.90
23591;DHT22;11973;52.098;7.582;2023-03-29T20:19:21;12.40;99.90
23591;DHT22;11973;52.098;7.582;2023-03-29T20:21:51;12.40;99.90
23591;DHT22;11973;52.098;7.582;2023-03-29T20:24:23;12.30;99.90
23591;DHT22;11973;52.098;7.582;2023-03-29T20:26:51;12.30;99.90
23591;DHT22;11973;52.098;7.582;2023-03-29T20:29:18;12.30;99.90
23591;DHT22;11973;52.098;7.582;2023-03-29T20:31:44;12.20;99.90
23591;DHT22;11973;52.098;7.582;2023-03-29T20:34:10;12.20;99.90
23591;DHT22;11973;52.098;7.582;2023-03-29T20:36:36;12.20;99.90
23591;DHT22;11973;52.098;7.582;2023-03-29T20:39:03;12.10;99.90
23591;DHT22;11973;52.098;7.582;2023-03-29T20:41:29;12.00;99.90
23591;DHT22;11973;52.098;7.582;2023-03-29T20:43:56;12.00;99.90
23591;DHT22;11973;52.098;7.582;2023-03-29T20:46:28;12.00;99.90
23591;DHT22;11973;52.098;7.582;2023-03-29T20:49:03;11.90;99.90
23591;DHT22;11973;52.098;7.582;2023-03-29T20:51:30;11.90;99.90
23591;DHT22;11973;52.098;7.582;2023-03-29T20:53:57;11.50;99.90
23591;DHT22;11973;52.098;7.582;2023-03-29T20:56:34;11.80;99.90
23591;DHT22;11973;52.098;7.582;2023-03-29T20:59:02;11.80;99.90
23591;DHT22;11973;52.098;7.582;2023-03-29T21:01:29;11.70;99.90
23591;DHT22;11973;52.098;7.582;2023-03-29T21:03:55;11.70;99.90
23591;DHT22;11973;52.098;7.582;2023-03-29T21:06:21;11.70;99.90
23591;DHT22;11973;52.098;7.582;2023-03-29T21:08:51;11.60;99.90
23591;DHT22;11973;52.098;7.582;2023-03-29T21:11:17;11.60;99.90
23591;DHT22;11973;52.098;7.582;2023-03-29T21:13:43;11.80;99.90
23591;DHT22;11973;52.098;7.582;2023-03-29T21:16:09;11.60;99.90